The Farmers Guide 72-hour weather forecast

Enter Postcode:

Sunny Spells

(06:00)

12.2°C

IP2 0SS

Wind Soil
Date Time Weather Temp Rain Humid Cloud Press (mph) Temp Moist
06/05 06:00 12.2°C 0.0mm 82% 70% 1014mb 6see (114 degrees) 10.2°C 0.3%
09:00 16.6°C 0.0mm 67% 66% 1013mb 9see (119 degrees) 10.9°C 0.3%
12:00 18.1°C 0.0mm 60% 81% 1012mb 10see (114 degrees) 11.9°C 0.3%
15:00 18.0°C 0.0mm 61% 91% 1010mb 9see (118 degrees) 12.8°C 0.3%
18:00 15.8°C 0.0mm 73% 69% 1010mb 6see (107 degrees) 13.3°C 0.3%
21:00 11.7°C 0.0mm 80% 57% 1010mb 6see (107 degrees) 12.8°C 0.3%
07/05 00:00 12.7°C 0.0mm 78% 73% 1010mb 6see (121 degrees) 12.3°C 0.3%
03:00 12.7°C 0.0mm 82% 96% 1009mb 7se (145 degrees) 12.0°C 0.3%
06:00 13.9°C 0.0mm 77% 90% 1009mb 7se (138 degrees) 11.8°C 0.3%
09:00 17.4°C 0.0mm 68% 60% 1010mb 12se (133 degrees) 12.4°C 0.3%
12:00 19.4°C 0.0mm 52% 42% 1009mb 15se (141 degrees) 13.3°C 0.3%
15:00 20.8°C 0.0mm 48% 42% 1009mb 16sse (147 degrees) 14.1°C 0.3%
18:00 17.7°C 0.0mm 63% 64% 1008mb 8se (129 degrees) 14.6°C 0.3%
21:00 14.4°C 0.0mm 68% 76% 1009mb 8see (120 degrees) 14.2°C 0.3%
08/05 00:00 14.1°C 0.0mm 75% 69% 1010mb 7se (124 degrees) 13.8°C 0.3%
03:00 13.3°C 0.0mm 80% 61% 1009mb 7se (129 degrees) 13.4°C 0.3%
06:00 15.2°C 0.0mm 79% 61% 1010mb 7se (129 degrees) 13.1°C 0.3%
09:00 18.7°C 0.0mm 68% 11% 1010mb 11se (127 degrees) 13.7°C 0.3%
12:00 20.7°C 0.0mm 59% 6% 1010mb 12see (120 degrees) 14.6°C 0.3%
15:00 20.6°C 0.0mm 60% 0% 1010mb 13see (104 degrees) 15.4°C 0.3%
18:00 17.7°C 0.0mm 63% 0% 1010mb 12e (98 degrees) 15.7°C 0.3%
21:00 14.6°C 0.0mm 70% 0% 1011mb 9e (92 degrees) 15.2°C 0.3%
09/05 00:00 14.5°C 0.0mm 75% 0% 1011mb 10e (92 degrees) 14.7°C 0.3%
03:00 13.3°C 0.0mm 81% 0% 1010mb 11e (84 degrees) 14.3°C 0.3%
The Farmers Guide weather forecast is a free service for users of this website.
 
We now carry forecasts based on postcodes. Just enter your postcode and the weather page will display the forecast for the following 72 hours, broken down into three-hour intervals.
 
The forecast data provided for each three-hour period includes: a general graphic showing the likely weather conditions; average temperatures for the period; cloud cover; barometric pressure; wind speed and direction; humidity; and rainfall.
 
An indication of the likely soil temperature and soil moisture will also be displayed for most postcodes, although this data is not available for every area.
 
We hope you will find this service useful and would welcome any feedback from you.
 
 

Search

Read our full May issue here FREE!

Advertisements